Flight Track Log - Related Links

Times and Time Zones

All times are in EDT time to prevent confusion due to time zone crossing. See the UAL906 flight status page for this flight to view local times or setup timezone preferences in your user account.

Time Position Orientation Groundspeed Altitude Reporting Facility
EDT Latitude Longitude Course Direction KTS MPH feet Rate Location/Type
Fri 07:32:39 AM 50.0430 8.5760 270° West 105 121  Level FlightAware ADS-B
Fri 07:32:59 AM 50.0380 8.5580 247° West 175 201 1,200 Level FlightAware ADS-B
Fri 07:33:19 AM 50.0320 8.5320 250° West 184 212 800 2,500 Climbing FlightAware ADS-B
Fri 07:33:35 AM 50.0280 8.5140 251° West 181 208 1,500 2,727 Climbing FlightAware ADS-B
Fri 07:33:41 AM 50.0280 8.5040 270° West 181 208 1,800 2,143 Climbing FlightAware ADS-B
Fri 07:34:03 AM 50.0290 8.4760 273° West 184 212 2,500 1,909 Climbing FlightAware ADS-B
Fri 07:34:25 AM 50.0300 8.4470 273° West 185 213 3,200 1,857 Climbing FlightAware ADS-B
Fri 07:34:45 AM 50.0280 8.4250 262° West 187 215 3,800 1,263 Climbing FlightAware ADS-B
Fri 07:35:03 AM 50.0250 8.3990 260° West 202 232 4,000 1,250 Climbing FlightAware ADS-B
Fri 07:35:33 AM 50.0190 8.3510 259° West 225 259 4,800 1,552 Climbing FlightAware ADS-B
Fri 07:36:01 AM 50.0140 8.3060 260° West 247 284 5,500 1,935 Climbing FlightAware ADS-B
Fri 07:36:35 AM 50.0200 8.2420 278° West 253 291 6,800 2,222 Climbing FlightAware ADS-B
Fri 07:36:55 AM 50.0300 8.2110 297° West 256 295 7,500 2,100 Climbing FlightAware ADS-B
Fri 07:37:15 AM 50.0410 8.1800 299° West 258 297 8,200 2,250 Climbing FlightAware ADS-B
Fri 07:37:27 AM 50.0480 8.1560 294° West 263 303 8,700 2,233 Climbing FlightAware ADS-B
Fri 07:37:58 AM 50.0660 8.1050 299° West 267 307 9,800 2,087 Climbing FlightAware ADS-B
Fri 07:38:13 AM 50.0800 8.0840 316° Northwest 274 315 10,300 1,418 Climbing FlightAware ADS-B
Fri 07:38:53 AM 50.1240 8.0370 326° Northwest 303 349 11,100 1,125 Climbing FlightAware ADS-B
Fri 07:39:33 AM 50.1710 7.9870 326° Northwest 331 381 11,800 1,114 Climbing FlightAware ADS-B
Fri 07:40:03 AM 50.2120 7.9420 325° Northwest 354 407 12,400 1,714 Climbing FlightAware ADS-B
Fri 07:40:43 AM 50.2660 7.8830 325° Northwest 357 411 13,800 2,000 Climbing FlightAware ADS-B
Fri 07:41:18 AM 50.3140 7.8320 326° Northwest 362 417 14,900 1,714 Climbing FlightAware ADS-B
Fri 07:41:53 AM 50.3630 7.7790 325° Northwest 370 426 15,800 1,569 Climbing FlightAware ADS-B
Fri 07:42:23 AM 50.4040 7.7350 326° Northwest 376 433 16,600 1,543 Climbing FlightAware ADS-B
Fri 07:43:03 AM 50.4600 7.6720 324° Northwest 386 444 17,600 1,680 Climbing FlightAware ADS-B
Fri 07:43:38 AM 50.5140 7.6120 325° Northwest 387 445 18,700 1,662 Climbing FlightAware ADS-B
Fri 07:44:08 AM 50.5580 7.5640 325° Northwest 389 448 19,400 1,280 Climbing FlightAware ADS-B
Fri 07:44:53 AM 50.6230 7.4930 325° Northwest 398 458 20,300 1,350 Climbing FlightAware ADS-B
Fri 07:45:28 AM 50.6770 7.4320 324° Northwest 399 459 21,200 1,457 Climbing FlightAware ADS-B
Fri 07:46:03 AM 50.7310 7.3720 325° Northwest 405 466 22,000 1,333 Climbing FlightAware ADS-B
Fri 07:46:40 AM 50.7840 7.3140 325° Northwest 407 468 22,800 1,304 Climbing FlightAware ADS-B
Fri 07:47:12 AM 50.8330 7.2590 325° Northwest 409 471 23,500 1,304 Climbing FlightAware ADS-B
Fri 07:47:49 AM 50.8920 7.1930 325° Northwest 414 476 24,300 1,233 Climbing FlightAware ADS-B
Fri 07:48:25 AM 50.9520 7.1260 325° Northwest 419 482 25,000 1,151 Climbing FlightAware ADS-B
Fri 07:49:02 AM 51.0090 7.0550 322° Northwest 423 487 25,700 1,059 Climbing FlightAware ADS-B
Fri 07:49:33 AM 51.0560 6.9960 322° Northwest 429 494 26,200 952 Climbing FlightAware ADS-B
Fri 07:50:05 AM 51.1040 6.9280 318° Northwest 432 497 26,700 986 Climbing FlightAware ADS-B
Fri 07:50:46 AM 51.1670 6.8520 323° Northwest 438 504 27,400 923 Climbing FlightAware ADS-B
Fri 07:50:57 AM 51.1830 6.8300 319° Northwest 435 501 27,500 857 Climbing FlightAware ADS-B
Fri 07:51:14 AM 51.2020 6.7780 300° West 438 504 27,800 857 Climbing FlightAware ADS-B
Fri 07:51:25 AM 51.2070 6.7470 284° West 441 507 27,900 750 Climbing FlightAware ADS-B
Fri 07:51:54 AM 51.2060 6.6520 269° West 449 517 28,300 870 Climbing FlightAware ADS-B
Fri 07:52:34 AM 51.2130 6.5210 275° West 450 518 28,900 811 Climbing FlightAware ADS-B
Fri 07:53:08 AM 51.2290 6.4100 283° West 453 521 29,300 750 Climbing FlightAware ADS-B
Fri 07:53:46 AM 51.2500 6.2840 285° West 457 526 29,800 1,040 Climbing FlightAware ADS-B
Fri 07:54:23 AM 51.2700 6.1690 286° West 455 524 30,600 1,233 Climbing FlightAware ADS-B
Fri 07:54:59 AM 51.3020 6.0610 295° West 449 517 31,300 1,343 Climbing FlightAware ADS-B
Fri 07:55:30 AM 51.3380 5.9710 303° West 444 511 32,100 1,235 Climbing FlightAware ADS-B
Fri 07:56:07 AM 51.3770 5.8730 303° West 442 509 32,700 986 Climbing FlightAware ADS-B
Fri 07:56:43 AM 51.4190 5.7680 303° West 440 506 33,300 917 Climbing FlightAware ADS-B
Fri 07:57:19 AM 51.4560 5.6740 302° West 438 504 33,800 627 Climbing FlightAware ADS-B
Fri 07:57:50 AM 51.4900 5.5870 302° West 440 506 34,000 176 Climbing FlightAware ADS-B
Fri 07:58:27 AM 51.5300 5.4860 303° West 440 506 34,000  Level FlightAware ADS-B
Fri 07:59:02 AM 51.5690 5.3880 303° West 441 507 34,000  Level FlightAware ADS-B
Fri 07:59:32 AM 51.5992 5.3002 303° West 484 557 34,000  Level FlightAware UK
Fri 07:59:39 AM 51.6060 5.2910 303° West 441 507 34,000  Level FlightAware ADS-B
Fri 08:00:07 AM 51.6370 5.2130 303° West 441 507 34,000  Level FlightAware ADS-B
Fri 08:00:46 AM 51.6810 5.0990 302° West 440 506 34,000  Level FlightAware ADS-B
Fri 08:01:23 AM 51.7220 4.9920 302° West 440 506 34,000  Level FlightAware ADS-B
Fri 08:01:56 AM 51.7560 4.9040 302° West 440 506 34,000  Level FlightAware ADS-B
Fri 08:02:32 AM 51.7940 4.8030 301° West 440 506 34,000  Level FlightAware ADS-B
Fri 08:03:06 AM 51.8340 4.7110 305° West 441 507 34,000  Level FlightAware ADS-B
Fri 08:03:29 AM 51.8680 4.6660 321° Northwest 445 512 34,000  Level FlightAware ADS-B
Fri 08:04:02 AM 51.9280 4.6070 321° Northwest 482 555 34,000  Level FlightAware UK
Fri 08:04:04 AM 51.9320 4.6050 321° Northwest 447 514 34,000  Level FlightAware ADS-B
Fri 08:04:43 AM 52.0010 4.5420 331° Northwest 447 514 34,000  Level FlightAware ADS-B
Fri 08:05:21 AM 52.0680 4.4790 330° Northwest 448 516 34,000  Level FlightAware ADS-B
Fri 08:05:57 AM 52.1370 4.4150 330° Northwest 447 514 34,000  Level FlightAware ADS-B
Fri 08:06:30 AM 52.1950 4.3650 332° Northwest 449 517 34,000  Level FlightAware ADS-B
Fri 08:07:03 AM 52.2570 4.3110 332° Northwest 448 516 34,000  Level FlightAware ADS-B
Fri 08:07:37 AM 52.3209 4.2566 332° Northwest 482 555 34,000  Level FlightAware UK
Fri 08:07:40 AM 52.3260 4.2510 332° Northwest 449 517 34,000  Level FlightAware ADS-B
Fri 08:08:13 AM 52.3866 4.1991 332° Northwest 484 557 34,000  Level FlightAware UK
Fri 08:08:17 AM 52.3930 4.1920 332° Northwest 449 517 34,000  Level FlightAware ADS-B
Fri 08:08:49 AM 52.4520 4.1410 332° Northwest 449 517 34,000  Level FlightAware ADS-B
Fri 08:09:26 AM 52.5170 4.0850 332° Northwest 449 517 34,000  Level FlightAware ADS-B
Fri 08:09:59 AM 52.5780 4.0300 331° Northwest 449 517 34,000  Level FlightAware ADS-B
Fri 08:10:38 AM 52.6510 3.9670 332° Northwest 449 517 34,000  Level FlightAware ADS-B
Fri 08:11:08 AM 52.7050 3.9190 332° Northwest 450 518 34,000  Level FlightAware ADS-B
Fri 08:11:43 AM 52.7700 3.8610 332° Northwest 450 518 34,000  Level FlightAware ADS-B
Fri 08:12:22 AM 52.8380 3.8000 332° Northwest 450 518 34,000  Level FlightAware ADS-B
Fri 08:12:56 AM 52.9000 3.7450 332° Northwest 450 518 34,000  Level FlightAware ADS-B
Fri 08:13:29 AM 52.9610 3.6900 331° Northwest 450 518 34,000  Level FlightAware ADS-B
Fri 08:14:01 AM 53.0226 3.6358 331° Northwest 482 555 34,000  Level FlightAware UK
Fri 08:14:06 AM 53.0280 3.6300 331° Northwest 450 518 34,000  Level FlightAware ADS-B
Fri 08:14:42 AM 53.0900 3.5740 332° Northwest 451 519 34,000  Level FlightAware ADS-B
Fri 08:15:18 AM 53.1580 3.5120 331° Northwest 451 519 34,000  Level FlightAware ADS-B
Fri 08:15:47 AM 53.2100 3.4650 332° Northwest 450 518 34,000  Level FlightAware ADS-B
Fri 08:16:21 AM 53.2770 3.4140 336° Northwest 451 519 34,000  Level FlightAware ADS-B
Fri 08:17:00 AM 53.3550 3.3680 341° North 451 519 34,000  Level FlightAware ADS-B
Fri 08:17:34 AM 53.4160 3.3330 341° North 451 519 34,000  Level FlightAware ADS-B
Fri 08:18:05 AM 53.4780 3.2970 341° North 450 518 34,000  Level FlightAware ADS-B
Fri 08:18:46 AM 53.5590 3.2500 341° North 450 518 34,000  Level FlightAware ADS-B
Fri 08:19:21 AM 53.6260 3.2110 341° North 449 517 34,000  Level FlightAware ADS-B
Fri 08:19:43 AM 53.6770 3.1960 350° North 457 526 34,000  Level FlightAware ADS-B
Fri 08:20:14 AM 53.7420 3.2030 North 467 537 34,000  Level FlightAware ADS-B
Fri 08:20:49 AM 53.8140 3.2160 North 466 536 34,000  Level FlightAware ADS-B
Fri 08:21:24 AM 53.8910 3.2310 North 466 536 34,000  Level FlightAware ADS-B
Fri 08:21:59 AM 53.9670 3.2450 North 467 537 34,000  Level FlightAware ADS-B
Fri 08:22:40 AM 54.0530 3.2610 North 466 536 34,000  Level FlightAware ADS-B
Fri 08:23:12 AM 54.1250 3.2750 North 466 536 34,000  Level FlightAware ADS-B
Fri 08:23:54 AM 54.2070 3.2900 North 465 535 34,000  Level FlightAware ADS-B
Fri 08:24:29 AM 54.2850 3.3030 North 454 522 34,000  Level FlightAware ADS-B
Fri 08:24:54 AM 54.3400 3.2980 357° North 455 524 34,000  Level FlightAware ADS-B
Fri 08:25:32 AM 54.4190 3.2630 346° North 446 513 34,000  Level FlightAware ADS-B
Fri 08:26:08 AM 54.4900 3.2220 341° North 448 516 34,000  Level FlightAware ADS-B
Fri 08:26:39 AM 54.5480 3.1880 341° North 446 513 34,000  Level FlightAware ADS-B
Fri 08:27:19 AM 54.6304 3.1401 341° North 482 555 34,000  Level FlightAware UK
Fri 08:27:33 AM 54.6550 3.1250 341° North 335 386 34,000  Level FlightAware ADS-B
Fri 08:28:09 AM 54.7230 3.0840 341° North 447 514 34,000  Level FlightAware ADS-B
Fri 08:28:46 AM 54.7990 3.0390 341° North 448 516 34,000  Level FlightAware ADS-B
Fri 08:29:21 AM 54.8640 3.0000 341° North 448 516 34,000  Level FlightAware ADS-B
Fri 08:29:56 AM 54.9340 2.9580 341° North 448 516 34,000  Level FlightAware ADS-B
Fri 08:30:33 AM 55.0070 2.9150 341° North 448 516 34,000  Level FlightAware ADS-B
Fri 08:31:03 AM 55.0650 2.8800 341° North 447 514 34,000  Level FlightAware ADS-B
Fri 08:31:41 AM 55.1380 2.8360 341° North 440 506 34,000  Level FlightAware ADS-B
Fri 08:32:16 AM 55.2070 2.7940 341° North 441 507 34,000  Level FlightAware ADS-B
Fri 08:32:51 AM 55.2750 2.7530 341° North 441 507 34,000  Level FlightAware ADS-B
Fri 08:33:26 AM 55.3430 2.7110 341° North 442 509 34,000 185 Level FlightAware ADS-B
Fri 08:33:56 AM 55.4020 2.6750 341° North 444 511 34,200 411 Climbing FlightAware ADS-B
Fri 08:34:39 AM 55.4880 2.6220 341° North 456 525 34,500 600 Climbing FlightAware ADS-B
Fri 08:35:16 AM 55.5600 2.5780 341° North 446 513 35,000 857 Climbing FlightAware ADS-B
Fri 08:35:56 AM 55.6420 2.5270 341° North 448 516 35,600 658 Climbing FlightAware ADS-B
Fri 08:36:29 AM 55.7060 2.4870 341° North 449 517 35,800 353 Climbing FlightAware ADS-B
Fri 08:37:04 AM 55.7750 2.4440 341° North 451 519 36,000 176 Climbing FlightAware ADS-B
Fri 08:37:37 AM 55.8402 2.4020 341° North 484 557 36,000  Level FlightAware UK
Fri 08:37:37 AM 55.8390 2.4040 341° North 452 520 36,000  Level FlightAware ADS-B
Fri 08:38:07 AM 55.8989 2.3635 341° North 482 555 36,000  Level FlightAware UK
Fri 08:38:11 AM 55.9050 2.3580 341° North 449 517 36,000  Level FlightAware ADS-B
Fri 08:38:50 AM 55.9790 2.2990 336° Northwest 449 517 36,000  Level FlightAware ADS-B
Fri 08:39:25 AM 56.0460 2.2450 336° Northwest 450 518 36,000  Level FlightAware ADS-B
Fri 08:40:03 AM 56.1130 2.1890 335° Northwest 450 518 36,000  Level FlightAware ADS-B
Fri 08:40:41 AM 56.1870 2.1280 335° Northwest 443 510 36,000  Level FlightAware ADS-B
Fri 08:41:16 AM 56.2500 2.0770 336° Northwest 444 511 36,000  Level FlightAware ADS-B
Fri 08:41:51 AM 56.3140 2.0230 335° Northwest 442 509 36,000  Level FlightAware ADS-B
Fri 08:42:25 AM 56.3853 1.9626 335° Northwest 484 557 36,000  Level FlightAware UK
Fri 08:42:26 AM 56.3830 1.9660 335° Northwest 442 509 36,000  Level FlightAware ADS-B
Fri 08:43:01 AM 56.4510 1.9090 335° Northwest 443 510 36,000  Level FlightAware ADS-B
Fri 08:43:31 AM 56.5092 1.8591 335° Northwest 488 562 36,000  Level FlightAware UK
Fri 08:43:38 AM 56.5230 1.8490 335° Northwest 451 519 36,000  Level FlightAware ADS-B
Fri 08:44:09 AM 56.5790 1.8050 337° Northwest 452 520 36,000  Level FlightAware ADS-B
Fri 08:44:46 AM 56.6530 1.7490 337° Northwest 452 520 36,000  Level FlightAware ADS-B
Fri 08:45:22 AM 56.7220 1.7000 339° North 452 520 36,000  Level FlightAware ADS-B
Fri 08:45:56 AM 56.7840 1.6550 338° Northwest 451 519 36,000  Level FlightAware ADS-B
Fri 08:46:31 AM 56.8560 1.6030 338° Northwest 449 517 36,000  Level FlightAware ADS-B
Fri 08:47:13 AM 56.9360 1.5450 338° Northwest 450 518 36,000  Level FlightAware ADS-B
Fri 08:47:48 AM 57.0040 1.4950 338° Northwest 449 517 36,000  Level FlightAware ADS-B
Fri 08:48:23 AM 57.0710 1.4460 338° Northwest 449 517 36,000  Level FlightAware ADS-B
Fri 08:48:58 AM 57.1380 1.3960 338° Northwest 449 517 36,000  Level FlightAware ADS-B
Fri 08:49:33 AM 57.2060 1.3450 338° Northwest 449 517 36,000  Level FlightAware ADS-B
Fri 08:50:08 AM 57.2720 1.2960 338° Northwest 450 518 36,000  Level FlightAware ADS-B
Fri 08:50:48 AM 57.3500 1.2370 338° Northwest 450 518 36,000  Level FlightAware ADS-B
Fri 08:51:23 AM 57.4150 1.1880 338° Northwest 451 519 36,000  Level FlightAware ADS-B
Fri 08:51:58 AM 57.4850 1.1350 338° Northwest 452 520 36,000  Level FlightAware ADS-B
Fri 08:52:38 AM 57.5610 1.0770 338° Northwest 452 520 36,000  Level FlightAware ADS-B
Fri 08:53:13 AM 57.6240 1.0290 338° Northwest 453 521 36,000  Level FlightAware ADS-B
Fri 08:53:50 AM 57.6980 0.9720 338° Northwest 455 524 36,000  Level FlightAware ADS-B
Fri 08:54:28 AM 57.7740 0.9140 338° Northwest 456 525 36,000  Level FlightAware ADS-B
Fri 08:55:08 AM 57.8520 0.8530 337° Northwest 456 525 36,000  Level FlightAware ADS-B
Fri 08:55:43 AM 57.9190 0.8010 338° Northwest 450 518 36,000  Level FlightAware ADS-B
Fri 08:56:18 AM 57.9840 0.7510 338° Northwest 450 518 36,000  Level FlightAware ADS-B
Fri 08:56:53 AM 58.0540 0.6960 337° Northwest 450 518 36,000  Level FlightAware ADS-B
Fri 08:57:28 AM 58.1260 0.6390 337° Northwest 451 519 36,000  Level FlightAware ADS-B
Fri 08:58:03 AM 58.1930 0.5860 337° Northwest 452 520 36,000  Level FlightAware ADS-B
Fri 08:58:38 AM 58.2600 0.5330 337° Northwest 452 520 36,000  Level FlightAware ADS-B
Fri 08:59:13 AM 58.3320 0.4760 337° Northwest 451 519 36,000  Level FlightAware ADS-B
Fri 08:59:50 AM 58.4000 0.4210 337° Northwest 451 519 36,000  Level FlightAware ADS-B
Fri 09:00:23 AM 58.4660 0.3680 337° Northwest 451 519 36,000  Level FlightAware ADS-B
Fri 09:00:58 AM 58.5340 0.3130 337° Northwest 452 520 36,000  Level FlightAware ADS-B
Fri 09:01:33 AM 58.6000 0.2590 337° Northwest 452 520 36,000  Level FlightAware ADS-B
Fri 09:02:05 AM 58.6693 0.2034 337° Northwest 482 555 36,000  Level FlightAware UK
Fri 09:02:23 AM 58.7010 0.1770 337° Northwest 453 521 36,000  Level FlightAware ADS-B
Fri 09:02:53 AM 58.7628 0.1271 337° Northwest 482 555 36,000  Level FlightAware UK
Fri 09:02:58 AM 58.7660 0.1240 337° Northwest 453 521 36,000  Level FlightAware ADS-B
Fri 09:03:34 AM 58.8380 0.0640 337° Northwest 455 524 36,000  Level FlightAware ADS-B
Fri 09:04:08 AM 58.9070 0.0080 337° Northwest 455 524 36,000  Level FlightAware ADS-B
Fri 09:04:43 AM 58.9760 -0.0500 337° Northwest 457 526 36,000  Level FlightAware ADS-B
Fri 09:05:28 AM 59.0630 -0.1220 337° Northwest 458 527 36,000  Level FlightAware ADS-B
Fri 09:05:58 AM 59.1240 -0.1740 336° Northwest 458 527 36,000  Level FlightAware ADS-B
Fri 09:06:29 AM 59.1877 -0.2271 336° Northwest 486 559 36,000  Level FlightAware UK
Fri 09:06:33 AM 59.1930 -0.2310 336° Northwest 458 527 36,000  Level FlightAware ADS-B
Fri 09:07:08 AM 59.2620 -0.2890 337° Northwest 459 528 36,000  Level FlightAware ADS-B
Fri 09:07:44 AM 59.3300 -0.3480 336° Northwest 459 528 36,000  Level FlightAware ADS-B
Fri 09:08:17 AM 59.4004 -0.4076 336° Northwest 486 559 36,000  Level FlightAware UK
Fri 09:08:18 AM 59.4000 -0.4080 336° Northwest 458 527 36,000  Level FlightAware ADS-B
Fri 09:08:53 AM 59.4712 -0.4686 336° Northwest 486 559 36,000  Level FlightAware UK
Fri 09:08:53 AM 59.4690 -0.4660 336° Northwest 458 527 36,000  Level FlightAware ADS-B
Fri 09:09:28 AM 59.5380 -0.5260 336° Northwest 457 526 36,000  Level FlightAware ADS-B
Fri 09:10:05 AM 59.6122 -0.5901 336° Northwest 486 559 36,000  Level FlightAware UK
Fri 09:10:06 AM 59.6000 -0.5800 336° Northwest 464 534 36,000  Level FlightAware ADS-B
Fri 09:10:41 AM 59.6710 -0.6410 337° Northwest 464 534 36,000  Level FlightAware ADS-B
Fri 09:11:06 AM 59.7180 -0.6820 336° Northwest 464 534 36,000  Level FlightAware ADS-B
Fri 09:11:58 AM 59.8210 -0.7720 336° Northwest 464 534 36,000  Level FlightAware ADS-B
Fri 09:12:35 AM 59.8900 -0.8330 336° Northwest 464 534 36,000  Level FlightAware ADS-B
Fri 09:13:15 AM 59.9570 -0.8920 336° Northwest 464 534 36,000  Level FlightAware ADS-B
Fri 09:13:51 AM 60.0170 -0.9460 336° Northwest 464 534 36,000  Level FlightAware ADS-B
Fri 09:14:27 AM 60.0770 -0.9990 336° Northwest 464 534 36,000  Level FlightAware ADS-B
Fri 09:15:04 AM 60.1380 -1.0540 336° Northwest 464 534 36,000  Level FlightAware ADS-B
Fri 09:15:41 AM 60.2620 -1.1650 336° Northwest 36,000  Level FlightAware ADS-B
Fri 09:16:16 AM 60.3290 -1.2260 336° Northwest 469 540 36,000  Level FlightAware ADS-B
Fri 09:16:52 AM 60.3890 -1.2800 336° Northwest 469 540 36,000  Level FlightAware ADS-B
Fri 09:17:28 AM 60.4500 -1.3350 336° Northwest 469 540 36,000  Level FlightAware ADS-B
Fri 09:18:05 AM 60.5120 -1.3910 336° Northwest 469 540 36,000  Level FlightAware ADS-B
Fri 09:18:37 AM 60.6160 -1.4890 335° Northwest 469 540 36,000  Level FlightAware ADS-B
Fri 09:19:21 AM 60.6920 -1.5620 335° Northwest 469 540 36,000  Level FlightAware ADS-B
Fri 09:19:55 AM 60.7680 -1.6310 336° Northwest 468 539 36,000  Level FlightAware ADS-B
Fri 09:20:28 AM 60.8280 -1.6870 336° Northwest 459 528 36,000  Level FlightAware ADS-B
Fri 09:21:06 AM 60.8900 -1.7490 334° Northwest 459 528 36,000  Level FlightAware ADS-B
Fri 09:21:41 AM 60.9750 -1.8290 335° Northwest 461 531 36,000  Level FlightAware ADS-B
Fri 09:22:08 AM 61.0210 -1.9020 322° Northwest 453 521 36,000  Level FlightAware ADS-B
Fri 09:22:44 AM 61.0710 -2.0130 313° West 451 519 36,000  Level FlightAware ADS-B
Fri 09:23:17 AM 61.1170 -2.1180 312° West 451 519 36,000  Level FlightAware ADS-B
Fri 09:23:53 AM 61.1680 -2.2360 312° West 452 520 36,000  Level FlightAware ADS-B
Fri 09:24:29 AM 61.2180 -2.3540 311° West 451 519 36,000  Level FlightAware ADS-B
Fri 09:25:05 AM 61.2680 -2.4700 312° West 452 520 36,000  Level FlightAware ADS-B
Fri 09:25:44 AM 61.3150 -2.5810 311° West 453 521 36,000  Level FlightAware ADS-B
Fri 09:26:17 AM 61.3600 -2.6860 312° West 454 522 36,000  Level FlightAware ADS-B
Fri 09:26:54 AM 61.4100 -2.8060 311° West 455 524 36,000  Level FlightAware ADS-B
Fri 09:27:27 AM 61.4550 -2.9120 312° West 455 524 36,000  Level FlightAware ADS-B
Fri 09:28:04 AM 61.5070 -3.0380 311° West 457 526 36,000  Level FlightAware ADS-B
Fri 09:28:38 AM 61.5550 -3.1520 312° West 456 525 36,000  Level FlightAware ADS-B
Fri 09:29:08 AM 61.5950 -3.2500 311° West 456 525 36,000  Level FlightAware ADS-B
Fri 09:29:44 AM 61.6440 -3.3680 311° West 456 525 36,000  Level FlightAware ADS-B
Fri 09:30:15 AM 61.6800 -3.4550 311° West 458 527 36,000  Level FlightAware ADS-B
Fri 09:30:50 AM 61.7350 -3.5910 311° West 459 528 36,000  Level FlightAware ADS-B
Fri 09:31:27 AM 61.7860 -3.7180 310° West 459 528 36,000  Level FlightAware ADS-B
Fri 09:32:03 AM 61.8450 -3.8640 311° West 460 529 36,000  Level FlightAware ADS-B
Fri 09:32:38 AM 61.8920 -3.9810 310° West 461 531 36,000  Level FlightAware ADS-B
Fri 09:33:15 AM 61.9410 -4.1050 310° West 461 531 36,000  Level FlightAware ADS-B
Fri 09:33:50 AM 61.9920 -4.2330 310° West 462 532 36,000  Level FlightAware ADS-B
Fri 09:34:23 AM 62.0370 -4.3490 310° West 462 532 36,000  Level FlightAware ADS-B
Fri 09:34:58 AM 62.0840 -4.4680 310° West 463 533 36,000  Level FlightAware ADS-B
Fri 09:35:34 AM 62.1330 -4.5940 310° West 463 533 36,000  Level FlightAware ADS-B
Fri 09:36:06 AM 62.1770 -4.7070 310° West 463 533 36,000  Level FlightAware ADS-B
Fri 09:36:42 AM 62.2260 -4.8340 310° West 463 533 36,000  Level FlightAware ADS-B
Fri 09:37:18 AM 62.2750 -4.9610 310° West 464 534 36,000  Level FlightAware ADS-B
Fri 09:37:56 AM 62.3270 -5.0990 309° West 468 539 36,000  Level FlightAware ADS-B
Fri 09:38:28 AM 62.3710 -5.2140 310° West 469 540 36,000  Level FlightAware ADS-B
Fri 09:39:04 AM 62.4200 -5.3460 309° West 470 541 36,000  Level FlightAware ADS-B
Fri 09:39:40 AM 62.4690 -5.4770 309° West 470 541 36,000  Level FlightAware ADS-B
Fri 09:40:11 AM 62.5110 -5.5900 309° West 470 541 36,000  Level FlightAware ADS-B
Fri 09:40:48 AM 62.5610 -5.7240 309° West 471 542 36,000  Level FlightAware ADS-B
Fri 09:41:24 AM 62.6100 -5.8580 309° West 471 542 36,000  Level FlightAware ADS-B
Fri 09:41:56 AM 62.6530 -5.9750 309° West 472 543 36,000  Level FlightAware ADS-B
Fri 09:42:33 AM 62.7020 -6.1100 308° West 472 543 36,000  Level FlightAware ADS-B
Fri 09:43:10 AM 62.7530 -6.2490 309° West 473 544 36,000  Level FlightAware ADS-B
Fri 09:43:42 AM 62.7970 -6.3720 308° West 474 545 36,000  Level FlightAware ADS-B
Fri 09:44:18 AM 62.8450 -6.5060 308° West 475 547 36,000  Level FlightAware ADS-B
Fri 09:44:54 AM 62.8930 -6.6410 308° West 476 548 36,000  Level FlightAware ADS-B
Fri 09:45:30 AM 62.9410 -6.7780 308° West 476 548 36,000  Level FlightAware ADS-B
Fri 09:46:06 AM 62.9900 -6.9160 308° West 476 548 36,000  Level FlightAware ADS-B
Fri 09:46:38 AM 63.0330 -7.0410 307° West 477 549 36,000  Level FlightAware ADS-B
Fri 09:47:14 AM 63.0810 -7.1770 308° West 477 549 36,000  Level FlightAware ADS-B
Fri 09:47:50 AM 63.1300 -7.3180 308° West 477 549 36,000  Level FlightAware ADS-B
Fri 09:48:26 AM 63.1770 -7.4560 307° West 478 550 36,000  Level FlightAware ADS-B
Fri 09:48:56 AM 63.2150 -7.5680 307° West 478 550 36,000  Level FlightAware ADS-B
Fri 09:49:30 AM 63.2610 -7.7040 307° West 478 550 36,000  Level FlightAware ADS-B
Fri 09:50:28 AM 63.3310 -7.9150 307° West 479 551 36,000  Level FlightAware ADS-B
Fri 09:51:04 AM 63.3710 -8.0380 306° West 479 551 36,000  Level FlightAware ADS-B
Fri 09:51:40 AM 63.4110 -8.1600 306° West 479 551 36,000  Level FlightAware ADS-B
Fri 09:52:16 AM 63.4510 -8.2830 306° West 479 551 36,000  Level FlightAware ADS-B
Fri 09:52:52 AM 63.4910 -8.4060 306° West 479 551 36,000  Level FlightAware ADS-B
Fri 09:53:28 AM 63.5310 -8.5290 306° West 479 551 36,000  Level FlightAware ADS-B
Fri 09:54:05 AM 63.5720 -8.6560 306° West 479 551 36,000  Level FlightAware ADS-B
Fri 09:54:40 AM 63.6690 -8.9410 308° West 488 562 36,000  Level FlightAware ADS-B
Fri 09:55:16 AM 63.7180 -9.0970 305° West 488 562 36,000  Level FlightAware ADS-B
Fri 09:55:51 AM 63.7630 -9.2380 306° West 488 562 36,000  Level FlightAware ADS-B
Fri 09:56:27 AM 63.8100 -9.3870 306° West 490 564 36,000  Level FlightAware ADS-B
Fri 09:57:03 AM 63.8580 -9.5410 305° West 491 565 36,000  Level FlightAware ADS-B
Fri 09:57:36 AM 63.9010 -9.6770 306° West 492 566 36,000  Level FlightAware ADS-B
Fri 09:58:08 AM 63.9410 -9.8080 305° West 492 566 36,000  Level FlightAware ADS-B
Fri 09:58:40 AM 63.9830 -9.9500 304° West 490 564 36,000  Level FlightAware ADS-B
Fri 09:59:21 AM 64.0240 -10.1040 301° West 490 564 36,000  Level FlightAware ADS-B
Fri 09:59:58 AM 64.0610 -10.2440 301° West 490 564 36,000  Level FlightAware ADS-B
Fri 10:00:25 AM 64.0620 -10.4520 271° West 481 554 36,000  Level FlightAware ADS-B
Fri 10:00:56 AM 64.0810 -10.5980 287° West 481 554 36,000  Level FlightAware ADS-B
Fri 10:01:33 AM 64.1050 -10.7780 287° West 481 554 36,000  Level FlightAware ADS-B
Fri 10:02:07 AM 64.1280 -10.9460 287° West 482 555 36,000  Level FlightAware ADS-B
Fri 10:02:47 AM 64.1530 -11.1410 286° West 483 556 36,000  Level FlightAware ADS-B
Fri 10:03:19 AM 64.1730 -11.2950 287° West 482 555 36,000  Level FlightAware ADS-B
Fri 10:03:56 AM 64.1960 -11.4740 287° West 483 556 36,000  Level FlightAware ADS-B
Fri 10:04:41 AM 64.2200 -11.6700 286° West 482 555 36,000  Level FlightAware ADS-B
Fri 10:05:17 AM 64.2390 -11.8200 286° West 482 555 36,000  Level FlightAware ADS-B
Fri 10:05:53 AM 64.2580 -11.9710 286° West 482 555 36,000  Level FlightAware ADS-B
Fri 10:06:46 AM 64.2950 -12.2840 285° West 483 556 36,000  Level FlightAware ADS-B
Fri 10:07:22 AM 64.3130 -12.4370 285° West 483 556 36,000  Level FlightAware ADS-B
Fri 10:07:53 AM 64.3390 -12.6470 286° West 487 560 36,000  Level FlightAware ADS-B
Fri 10:08:28 AM 64.3600 -12.8240 285° West 488 562 36,000  Level FlightAware ADS-B
Fri 10:09:05 AM 64.3810 -13.0090 285° West 489 563 36,000  Level FlightAware ADS-B
Fri 10:09:37 AM 64.4000 -13.1720 285° West 490 564 36,000  Level FlightAware ADS-B
Fri 10:10:21 AM 64.4250 -13.3970 285° West 490 564 36,000  Level FlightAware ADS-B
Fri 10:10:57 AM 64.4450 -13.5760 285° West 490 564 36,000  Level FlightAware ADS-B
Fri 10:11:30 AM 64.4610 -13.7260 284° West 490 564 36,000  Level FlightAware ADS-B
Fri 10:12:04 AM 64.4810 -13.9120 284° West 489 563 36,000  Level FlightAware ADS-B
Fri 10:12:36 AM 64.4990 -14.0760 284° West 489 563 36,000  Level FlightAware ADS-B
Fri 10:13:14 AM 64.5180 -14.2580 284° West 490 564 36,000  Level FlightAware ADS-B
Fri 10:13:50 AM 64.5380 -14.4510 284° West 492 566 36,000  Level FlightAware ADS-B
Fri 10:14:26 AM 64.5570 -14.6340 284° West 491 565 36,000  Level FlightAware ADS-B
Fri 10:15:00 AM 64.5750 -14.8100 283° West 491 565 36,000  Level FlightAware ADS-B
Fri 10:15:34 AM 64.5920 -14.9780 283° West 491 565 36,000  Level FlightAware ADS-B
Fri 10:16:10 AM 64.6100 -15.1640 283° West 490 564 36,000  Level FlightAware ADS-B
Fri 10:16:46 AM 64.6280 -15.3520 283° West 491 565 36,000  Level FlightAware ADS-B
Fri 10:17:19 AM 64.6450 -15.5260 283° West 491 565 36,000  Level FlightAware ADS-B
Fri 10:17:55 AM 64.6620 -15.7030 283° West 490 564 36,000  Level FlightAware ADS-B
Fri 10:18:29 AM 64.6790 -15.8840 282° West 489 563 36,000  Level FlightAware ADS-B
Fri 10:19:03 AM 64.6950 -16.0600 282° West 488 562 36,000  Level FlightAware ADS-B
Fri 10:19:39 AM 64.7120 -16.2480 282° West 488 562 36,000  Level FlightAware ADS-B
Fri 10:20:11 AM 64.7260 -16.4030 282° West 488 562 36,000  Level FlightAware ADS-B
Fri 10:20:50 AM 64.7450 -16.6110 282° West 488 562 36,000  Level FlightAware ADS-B
Fri 10:21:24 AM 64.7590 -16.7770 281° West 487 560 36,000  Level FlightAware ADS-B
Fri 10:21:59 AM 64.7750 -16.9660 281° West 489 563 36,000  Level FlightAware ADS-B
Fri 10:22:35 AM 64.7900 -17.1470 281° West 491 565 36,000  Level FlightAware ADS-B
Fri 10:23:11 AM 64.8060 -17.3400 281° West 491 565 36,000  Level FlightAware ADS-B
Fri 10:23:43 AM 64.8210 -17.5120 282° West 490 564 36,000  Level FlightAware ADS-B
Fri 10:24:21 AM 64.8360 -17.7010 281° West 489 563 36,000  Level FlightAware ADS-B
Fri 10:24:53 AM 64.8490 -17.8700 280° West 489 563 36,000  Level FlightAware ADS-B
Fri 10:25:31 AM 64.8650 -18.0690 281° West 490 564 36,000  Level FlightAware ADS-B
Fri 10:26:03 AM 64.8770 -18.2370 280° West 492 566 36,000  Level FlightAware ADS-B
Fri 10:26:41 AM 64.8920 -18.4330 280° West 493 567 36,000  Level FlightAware ADS-B
Fri 10:27:15 AM 64.9050 -18.6140 280° West 493 567 36,000  Level FlightAware ADS-B
Fri 10:27:43 AM 64.9160 -18.7620 280° West 494 568 36,000  Level FlightAware ADS-B
Fri 10:28:14 AM 64.9280 -18.9290 280° West 493 567 36,000  Level FlightAware ADS-B
Fri 10:28:53 AM 64.9430 -19.1350 280° West 494 568 36,000  Level FlightAware ADS-B
Fri 10:29:29 AM 64.9560 -19.3320 279° West 494 568 36,000  Level FlightAware ADS-B
Fri 10:30:05 AM 64.9690 -19.5230 279° West 494 568 36,000  Level FlightAware ADS-B
Fri 10:30:41 AM 64.9820 -19.7160 279° West 495 570 36,000  Level FlightAware ADS-B
Fri 10:31:09 AM 64.9910 -19.8600 278° West 496 571 36,000  Level FlightAware ADS-B
Fri 10:31:48 AM 65.0020 -20.0750 277° West 496 571 36,000  Level FlightAware ADS-B
Fri 10:32:25 AM 65.0090 -20.2720 275° West 495 570 36,000  Level FlightAware ADS-B
Fri 10:32:58 AM 65.0150 -20.4520 275° West 495 570 36,000  Level FlightAware ADS-B
Fri 10:33:32 AM 65.0200 -20.6360 274° West 495 570 36,000  Level FlightAware ADS-B
Fri 10:34:09 AM 65.0260 -20.8310 274° West 494 568 36,000  Level FlightAware ADS-B
Fri 10:34:41 AM 65.0300 -21.0030 273° West 494 568 36,000  Level FlightAware ADS-B
Fri 10:35:15 AM 65.0350 -21.1860 274° West 495 570 36,000  Level FlightAware ADS-B
Fri 10:35:53 AM 65.0400 -21.3920 273° West 495 570 36,000  Level FlightAware ADS-B
Fri 10:36:29 AM 65.0450 -21.5870 274° West 496 571 36,000  Level FlightAware ADS-B
Fri 10:37:03 AM 65.0490 -21.7670 273° West 495 570 36,000  Level FlightAware ADS-B
Fri 10:37:41 AM 65.0530 -21.9750 273° West 494 568 36,000  Level FlightAware ADS-B
Fri 10:38:13 AM 65.0560 -22.1480 272° West 495 570 36,000  Level FlightAware ADS-B
Fri 10:38:49 AM 65.0600 -22.3440 273° West 495 570 36,000  Level FlightAware ADS-B
Fri 10:39:25 AM 65.0630 -22.5360 272° West 495 570 36,000  Level FlightAware ADS-B
Fri 10:39:59 AM 65.0660 -22.7230 272° West 495 570 36,000  Level FlightAware ADS-B
Fri 10:40:35 AM 65.0690 -22.9160 272° West 494 568 36,000  Level FlightAware ADS-B
Fri 10:41:11 AM 65.0720 -23.1090 272° West 494 568 36,000  Level FlightAware ADS-B
Fri 10:41:43 AM 65.0740 -23.2810 272° West 494 568 36,000  Level FlightAware ADS-B
Fri 10:42:20 AM 65.0760 -23.4670 272° West 495 570 36,000  Level FlightAware ADS-B
Fri 10:42:53 AM 65.0780 -23.6570 272° West 496 571 36,000  Level FlightAware ADS-B
Fri 10:43:29 AM 65.0790 -23.8540 271° West 496 571 36,000  Level FlightAware ADS-B
Fri 10:44:03 AM 65.0810 -24.0360 272° West 497 572 36,000  Level FlightAware ADS-B
Fri 10:44:41 AM 65.0820 -24.2440 271° West 497 572 36,000  Level FlightAware ADS-B
Fri 10:45:13 AM 65.0820 -24.4150 270° West 497 572 36,000  Level FlightAware ADS-B
Fri 10:45:55 AM 65.0830 -24.6450 271° West 498 573 36,000  Level FlightAware ADS-B
Fri 10:46:50 AM 65.0830 -24.9190 270° West 498 573 36,000  Level FlightAware ADS-B
Fri 10:47:33 AM 65.0840 -25.1780 271° West 499 574 36,000  Level FlightAware ADS-B
Fri 10:48:15 AM 65.0830 -25.4090 270° West 500 575 36,000  Level FlightAware ADS-B
Fri 10:48:49 AM 65.0830 -25.5910 270° West 500 575 36,000  Level FlightAware ADS-B
Fri 10:49:29 AM 65.0810 -25.7900 269° West 500 575 36,000  Level FlightAware ADS-B
Fri 10:50:05 AM 65.0800 -25.9580 269° West 500 575 36,000  Level FlightAware ADS-B
Fri 10:50:42 AM 65.0790 -26.1310 269° West 500 575 36,000  Level FlightAware ADS-B
Fri 10:51:18 AM 65.0770 -26.2990 268° West 500 575 36,000  Level FlightAware ADS-B
Fri 10:51:55 AM 65.0760 -26.4720 269° West 500 575 36,000  Level FlightAware ADS-B
Fri 10:52:31 AM 65.0750 -26.6390 269° West 500 575 36,000  Level FlightAware ADS-B
Fri 10:53:07 AM 65.0740 -26.8070 269° West 500 575 36,000  Level FlightAware ADS-B
Fri 10:53:43 AM 65.0720 -26.9750 268° West 500 575 36,000  Level FlightAware ADS-B
Fri 10:54:24 AM 65.0710 -27.1670 269° West 500 575 36,000  Level FlightAware ADS-B
Fri 10:55:01 AM 65.0700 -27.3390 269° West 500 575 36,000  Level FlightAware ADS-B
Fri 10:55:38 AM 65.0680 -27.5120 269° West 500 575 36,000  Level FlightAware ADS-B
Fri 10:56:14 AM 65.0670 -27.6800 269° West 500 575 36,000  Level FlightAware ADS-B
Fri 10:56:51 AM 65.0660 -27.8520 269° West 500 575 36,000  Level FlightAware ADS-B
Fri 10:57:27 AM 65.0640 -28.0200 268° West 500 575 36,000  Level FlightAware ADS-B
Fri 10:58:04 AM 65.0630 -28.1930 269° West 500 575 36,000  Level FlightAware ADS-B
Fri 10:58:40 AM 65.0620 -28.3600 269° West 500 575 36,000  Level FlightAware ADS-B
Fri 10:59:28 AM 65.0280 -29.0500 264° West 497 572 36,000  Level FlightAware ADS-B
Fri 11:00:03 AM 65.0230 -29.2660 267° West 497 572 36,000  Level FlightAware ADS-B
Fri 11:00:33 AM 65.0180 -29.4300 266° West 497 572 36,000  Level FlightAware ADS-B
Fri 11:01:26 AM 65.0090 -29.6940 266° West 498 573 36,000  Level FlightAware ADS-B
Fri 11:02:01 AM 65.0030 -29.9050 266° West 499 574 36,000  Level FlightAware ADS-B
Fri 11:02:37 AM 64.9940 -30.1010 264° West 501 577 36,000  Level FlightAware ADS-B
Fri 11:03:19 AM 64.9790 -30.3290 261° West 504 580 36,000  Level FlightAware ADS-B
Fri 11:03:52 AM 64.9670 -30.5090 261° West 505 581 36,000  Level FlightAware ADS-B
Fri 11:04:39 AM 64.9510 -30.7330 261° West 506 582 36,000  Level FlightAware ADS-B
Fri 11:05:11 AM 64.9380 -30.9310 261° West 507 583 36,000  Level FlightAware ADS-B
Fri 11:05:46 AM 64.9250 -31.1200 261° West 507 583 36,000  Level FlightAware ADS-B
Fri 11:06:23 AM 64.9100 -31.3220 260° West 508 585 36,000  Level FlightAware ADS-B
Fri 11:06:57 AM 64.8990 -31.4750 260° West 508 585 36,000  Level FlightAware ADS-B
Fri 11:07:31 AM 64.8870 -31.6320 260° West 508 585 36,000  Level FlightAware ADS-B
Fri 11:08:09 AM 64.8740 -31.8090 260° West 508 585 36,000  Level FlightAware ADS-B
Fri 11:08:45 AM 64.8610 -31.9750 260° West 508 585 36,000  Level FlightAware ADS-B
Fri 11:09:21 AM 64.8490 -32.1420 260° West 508 585 36,000  Level FlightAware ADS-B
Fri 11:09:55 AM 64.8370 -32.2990 260° West 508 585 36,000  Level FlightAware ADS-B
Fri 11:10:32 AM 64.8240 -32.4700 260° West 508 585 36,000  Level FlightAware ADS-B
Fri 11:11:09 AM 64.8110 -32.6420 260° West 508 585 36,000  Level FlightAware ADS-B
Fri 11:11:45 AM 64.7990 -32.8080 260° West 508 585 36,000  Level FlightAware ADS-B
Fri 11:12:21 AM 64.7860 -32.9740 260° West 508 585 36,000  Level FlightAware ADS-B
Fri 11:12:55 AM 64.7740 -33.1310 260° West 508 585 36,000  Level FlightAware ADS-B
Fri 11:13:32 AM 64.7610 -33.3020 260° West 508 585 36,000  Level FlightAware ADS-B
Fri 11:14:10 AM 64.7480 -33.4770 260° West 508 585 36,000  Level FlightAware ADS-B
Fri 11:14:46 AM 64.7360 -33.6430 260° West 508 585 36,000  Level FlightAware ADS-B
Fri 11:15:22 AM 64.7230 -33.8090 260° West 508 585 36,000  Level FlightAware ADS-B
Fri 11:15:58 AM 64.7110 -33.9750 260° West 508 585 36,000  Level FlightAware ADS-B
Fri 11:18:00 AM 64.6619 -34.5854 260° West  Level Estimated
Fri 11:19:00 AM 64.6369 -34.8847 259° West  Level Estimated
Fri 11:20:00 AM 64.6112 -35.1835 259° West  Level Estimated
Fri 11:21:00 AM 64.5850 -35.4818 259° West  Level Estimated
Fri 11:22:00 AM 64.5581 -35.7794 258° West  Level Estimated
Fri 11:23:00 AM 64.5307 -36.0765 258° West  Level Estimated
Fri 11:24:00 AM 64.5026 -36.3729 258° West  Level Estimated
Fri 11:25:00 AM 64.4740 -36.6688 257° West  Level Estimated
Fri 11:26:00 AM 64.4447 -36.9640 257° West  Level Estimated
Fri 11:27:00 AM 64.4149 -37.2586 257° West  Level Estimated
Fri 11:28:00 AM 64.3845 -37.5525 257° West  Level Estimated
Fri 11:29:00 AM 64.3535 -37.8458 256° West  Level Estimated
Fri 11:30:00 AM 64.3219 -38.1384 256° West  Level Estimated
Fri 11:31:00 AM 64.2897 -38.4303 256° West  Level Estimated
Fri 11:32:00 AM 64.2570 -38.7216 256° West  Level Estimated
Fri 11:33:00 AM 64.2236 -39.0121 255° West  Level Estimated
Fri 11:34:00 AM 64.1897 -39.3020 255° West  Level Estimated
Fri 11:35:00 AM 64.1552 -39.5911 255° West  Level Estimated
Fri 11:36:00 AM 64.1202 -39.8795 255° West  Level Estimated
Fri 11:37:00 AM 64.0846 -40.1672 254° West  Level Estimated
Fri 11:38:00 AM 64.0484 -40.4541 254° West  Level Estimated
Fri 11:39:00 AM 64.0116 -40.7403 254° West  Level Estimated
Fri 11:40:00 AM 63.9752 -41.0187 254° West  Level Estimated
Fri 11:41:00 AM 63.9383 -41.2963 253° West  Level Estimated
Fri 11:42:00 AM 63.9009 -41.5732 253° West  Level Estimated
Fri 11:43:00 AM 63.8629 -41.8494 253° West  Level Estimated
Fri 11:44:00 AM 63.8244 -42.1248 253° West  Level Estimated
Fri 11:45:00 AM 63.7854 -42.3995 252° West  Level Estimated
Fri 11:46:00 AM 63.7459 -42.6734 252° West  Level Estimated
Fri 11:47:00 AM 63.7058 -42.9465 252° West  Level Estimated
Fri 11:48:00 AM 63.6652 -43.2188 252° West  Level Estimated
Fri 11:49:00 AM 63.6242 -43.4904 251° West  Level Estimated
Fri 11:50:00 AM 63.5826 -43.7612 251° West  Level Estimated
Fri 11:50:56 AM 63.2167 -44.5167 250° West 490 564 36,000  Level Gander Center
Fri 11:51:00 AM 63.5405 -44.0312 251° West  Level Estimated
Fri 11:51:56 AM 63.1500 -44.7667 240° Southwest 490 564 36,000  Level Gander Center
Fri 11:52:00 AM 63.4979 -44.3003 251° West  Level Estimated
Fri 11:52:56 AM 63.1000 -45.0667 250° West 500 575 36,000  Level Gander Center
Fri 11:53:00 AM 63.4548 -44.5687 250° West  Level Estimated
Fri 11:53:56 AM 63.0500 -45.3167 246° West 500 575 36,000  Level Gander Center
Fri 11:54:00 AM 63.4111 -44.8363 250° West  Level Estimated
Fri 11:54:56 AM 63.0000 -45.6000 249° West 500 575 36,000  Level Gander Center
Fri 11:55:00 AM 63.3670 -45.1030 250° West  Level Estimated
Fri 11:55:56 AM 62.9333 -45.9000 244° Southwest 500 575 36,000  Level Gander Center
Fri 11:56:00 AM 63.3224 -45.3689 250° West  Level Estimated
Fri 11:56:56 AM 62.8833 -46.1500 246° West 500 575 36,000  Level Gander Center
Fri 11:57:56 AM 62.8167 -46.4000 240° Southwest 510 587 36,000  Level Gander Center
Fri 11:58:56 AM 62.7667 -46.6833 249° West 510 587 36,000  Level Gander Center
Fri 11:59:56 AM 62.7167 -46.9667 249° West 500 575 36,000  Level Gander Center
Fri 12:00:56 PM 62.6500 -47.2167 240° Southwest 500 575 36,000  Level Gander Center
Fri 12:01:56 PM 62.5833 -47.5000 243° Southwest 500 575 36,000  Level Gander Center
Fri 12:02:56 PM 62.5167 -47.7833 243° Southwest 500 575 36,000  Level Gander Center
Fri 12:08:32 PM 62.1590 -49.3590 243° Southwest 494 568 36,000  Level FlightAware ADS-B
Fri 12:09:09 PM 62.1190 -49.5200 242° Southwest 494 568 36,000  Level FlightAware ADS-B
Fri 12:09:50 PM 62.0820 -49.6690 242° Southwest 494 568 36,000  Level FlightAware ADS-B
Fri 12:10:27 PM 62.0490 -49.8050 243° Southwest 494 568 36,000  Level FlightAware ADS-B
Fri 12:11:08 PM 62.0110 -49.9540 242° Southwest 494 568 36,000  Level FlightAware ADS-B
Fri 12:11:41 PM 61.9600 -50.1640 243° Southwest 488 562 36,000  Level FlightAware ADS-B
Fri 12:12:18 PM 61.9220 -50.3260 244° Southwest 487 560 36,000  Level FlightAware ADS-B
Fri 12:12:49 PM 61.8890 -50.4610 243° Southwest 487 560 36,000  Level FlightAware ADS-B
Fri 12:13:29 PM 61.8530 -50.6040 242° Southwest 487 560 36,000  Level FlightAware ADS-B
Fri 12:14:06 PM 61.8200 -50.7360 242° Southwest 487 560 36,000  Level FlightAware ADS-B
Fri 12:14:43 PM 61.7870 -50.8690 242° Southwest 487 560 36,000  Level FlightAware ADS-B
Fri 12:15:19 PM 61.7540 -50.9970 241° Southwest 487 560 36,000  Level FlightAware ADS-B
Fri 12:15:55 PM 61.7220 -51.1260 242° Southwest 487 560 36,000  Level FlightAware ADS-B
Fri 12:16:31 PM 61.6900 -51.2540 242° Southwest 487 560 36,000  Level FlightAware ADS-B
Fri 12:17:10 PM 61.6550 -51.3930 242° Southwest 487 560 36,000  Level FlightAware ADS-B
Fri 12:17:46 PM 61.6220 -51.5210 242° Southwest 487 560 36,000  Level FlightAware ADS-B
Fri 12:18:22 PM 61.5900 -51.6490 242° Southwest 487 560 36,000  Level FlightAware ADS-B
Fri 12:18:58 PM 61.5570 -51.7770 242° Southwest 487 560 36,000  Level FlightAware ADS-B
Fri 12:19:34 PM 61.5250 -51.9050 242° Southwest 487 560 36,000  Level FlightAware ADS-B
Fri 12:20:11 PM 61.4920 -52.0360 242° Southwest 487 560 36,000  Level FlightAware ADS-B
Fri 12:20:47 PM 61.4590 -52.1630 242° Southwest 487 560 36,000  Level FlightAware ADS-B
Fri 12:21:24 PM 61.4260 -52.2940 242° Southwest 487 560 36,000  Level FlightAware ADS-B
Fri 12:22:01 PM 61.3930 -52.4250 242° Southwest 487 560 36,000  Level FlightAware ADS-B
Fri 12:22:37 PM 61.3600 -52.5520 242° Southwest 487 560 36,000  Level FlightAware ADS-B
Fri 12:23:10 PM 61.2333 -52.9500 242° Southwest 490 564 36,000  Level Gander Center
Fri 12:24:10 PM 61.1667 -53.2167 243° Southwest 490 564 36,000  Level Gander Center
Fri 12:25:10 PM 61.1000 -53.4333 238° Southwest 500 575 36,000  Level Gander Center
Fri 12:26:10 PM 61.0333 -53.7000 243° Southwest 500 575 36,000  Level Gander Center
Fri 12:27:10 PM 60.9500 -53.9500 236° Southwest 500 575 36,000  Level Gander Center
Fri 12:28:10 PM 60.9000 -54.1667 245° Southwest 500 575 36,000  Level Gander Center
Fri 12:29:10 PM 60.8333 -54.4167 241° Southwest 500 575 36,000  Level Gander Center
Fri 12:30:10 PM 60.7667 -54.6833 243° Southwest 500 575 36,000  Level Gander Center
Fri 12:31:10 PM 60.6833 -54.9000 232° Southwest 500 575 36,000  Level Gander Center
Fri 12:32:10 PM 60.6167 -55.1500 242° Southwest 490 564 36,000  Level Gander Center
Fri 12:33:10 PM 60.5500 -55.4000 242° Southwest 490 564 36,000  Level Gander Center
Fri 12:34:10 PM 60.4667 -55.6167 232° Southwest 490 564 36,000  Level Gander Center
Fri 12:35:10 PM 60.4000 -55.8667 242° Southwest 510 587 36,000  Level Gander Center
Fri 12:36:10 PM 60.3000 -56.1167 231° Southwest 500 575 36,000  Level Gander Center
Fri 12:37:10 PM 60.2500 -56.3167 243° Southwest 490 564 36,000  Level Gander Center
Fri 12:38:10 PM 60.1833 -56.5667 242° Southwest 500 575 36,000  Level Gander Center
Fri 12:39:10 PM 60.1167 -56.7833 238° Southwest 490 564 36,000  Level Gander Center
Fri 12:40:10 PM 60.0333 -57.0167 235° Southwest 490 564 36,000  Level Gander Center
Fri 12:41:10 PM 59.9500 -57.2333 233° Southwest 490 564 36,000  Level Gander Center
Fri 12:42:10 PM 59.8833 -57.4667 240° Southwest 490 564 36,000  Level Gander Center
Fri 12:43:10 PM 59.8000 -57.7167 237° Southwest 490 564 36,000  Level Gander Center
Fri 12:44:10 PM 59.7333 -57.9167 237° Southwest 490 564 36,000  Level Gander Center
Fri 12:45:56 PM 59.6000 -58.3167 237° Southwest 490 564 36,000  Level Gander Center
Fri 12:46:35 PM 59.5500 -58.4167 225° Southwest 490 564 36,000  Level Montreal Center
Fri 12:47:10 PM 59.5167 -58.6000 250° West 490 564 36,000  Level Gander Center
Fri 12:48:10 PM 59.4333 -58.8333 235° Southwest 490 564 36,000  Level Gander Center
Fri 12:49:10 PM 59.3500 -59.0333 231° Southwest 490 564 36,000  Level Gander Center
Fri 12:50:10 PM 59.2667 -59.2667 235° Southwest 490 564 36,000  Level Gander Center
Fri 12:51:56 PM 59.1333 -59.6333 235° Southwest 490 564 36,000  Level Gander Center
Fri 12:52:35 PM 59.0833 -59.7333 226° Southwest 490 564 36,000  Level Montreal Center
Fri 12:53:10 PM 59.0333 -59.8833 237° Southwest 490 564 36,000  Level Gander Center
Fri 12:54:10 PM 58.9667 -60.1167 241° Southwest 480 552 36,000  Level Gander Center
Fri 12:55:10 PM 58.9000 -60.3500 241° Southwest 480 552 36,000  Level Gander Center
Fri 12:56:10 PM 58.8333 -60.5667 239° Southwest 480 552 36,000  Level Gander Center
Fri 12:57:10 PM 58.7667 -60.7667 237° Southwest 480 552 36,000  Level Gander Center
Fri 12:58:10 PM 58.7167 -61.0333 250° West 470 541 36,000  Level Gander Center
Fri 12:59:10 PM 58.6333 -61.2500 234° Southwest 480 552 36,000  Level Gander Center
Fri 01:00:10 PM 58.5667 -61.4667 240° Southwest 470 541 36,000  Level Gander Center
Fri 01:01:10 PM 58.5167 -61.7000 248° West 470 541 36,000  Level Gander Center
Fri 01:02:10 PM 58.4333 -61.8833 229° Southwest 470 541 36,000  Level Gander Center
Fri 01:03:10 PM 58.3500 -62.0833 232° Southwest 490 564 36,000  Level Gander Center
Fri 01:04:10 PM 58.2500 -62.2667 224° Southwest 490 564 36,000  Level Gander Center
Fri 01:05:10 PM 58.1500 -62.4500 224° Southwest 490 564 36,000  Level Gander Center
Fri 01:06:10 PM 58.0667 -62.6333 229° Southwest 490 564 36,000  Level Gander Center
Fri 01:07:10 PM 57.9667 -62.8167 224° Southwest 480 552 36,000  Level Gander Center
Fri 01:08:10 PM 57.8833 -62.9833 227° Southwest 480 552 36,000  Level Gander Center
Fri 01:09:10 PM 57.7667 -63.1500 217° Southwest 480 552 36,000  Level Gander Center
Fri 01:10:10 PM 57.6833 -63.3333 230° Southwest 480 552 36,000  Level Gander Center
Fri 01:11:10 PM 57.5833 -63.4833 219° Southwest 480 552 36,000  Level Gander Center
Fri 01:12:10 PM 57.5000 -63.6667 230° Southwest 490 564 36,000  Level Gander Center
Fri 01:13:10 PM 57.4000 -63.8500 225° Southwest 480 552 36,000  Level Gander Center
Fri 01:14:10 PM 57.2833 -64.0333 220° Southwest 470 541 36,000  Level Gander Center
Fri 01:15:10 PM 57.2000 -64.2000 227° Southwest 460 529 36,000  Level Gander Center
Fri 01:16:10 PM 57.1333 -64.3833 236° Southwest 450 518 36,000  Level Gander Center
Fri 01:17:10 PM 57.0667 -64.5667 236° Southwest 450 518 36,000  Level Gander Center
Fri 01:18:10 PM 57.0000 -64.7833 241° Southwest 440 506 36,000  Level Gander Center
Fri 01:19:10 PM 56.9333 -64.9500 234° Southwest 430 495 36,000  Level Gander Center
Fri 01:20:10 PM 56.8833 -65.1333 244° Southwest 430 495 36,000  Level Gander Center
Fri 01:21:10 PM 56.8000 -65.3000 228° Southwest 430 495 36,000  Level Gander Center
Fri 01:22:10 PM 56.7333 -65.4833 237° Southwest 430 495 36,000  Level Gander Center
Fri 01:23:10 PM 56.6833 -65.6667 244° Southwest 430 495 36,000  Level Gander Center
Fri 01:24:10 PM 56.6000 -65.8333 228° Southwest 430 495 36,000  Level Gander Center
Fri 01:25:10 PM 56.5500 -66.0000 241° Southwest 430 495 36,000  Level Gander Center
Fri 01:26:10 PM 56.4667 -66.2167 235° Southwest 420 483 36,000  Level Gander Center
Fri 01:27:10 PM 56.4000 -66.3833 234° Southwest 430 495 36,000  Level Gander Center
Fri 01:28:10 PM 56.3500 -66.5500 242° Southwest 430 495 36,000  Level Gander Center
Fri 01:29:10 PM 56.2667 -66.7333 231° Southwest 430 495 36,000  Level Gander Center
Fri 01:30:10 PM 56.2167 -66.9000 242° Southwest 420 483 36,000  Level Gander Center
Fri 01:31:10 PM 56.1333 -67.0667 228° Southwest 430 495 36,000  Level Gander Center
Fri 01:32:10 PM 56.0833 -67.2333 242° Southwest 430 495 36,000  Level Gander Center
Fri 01:33:10 PM 56.0000 -67.4167 231° Southwest 420 483 36,000  Level Gander Center
Fri 01:34:10 PM 55.9333 -67.6000 237° Southwest 420 483 36,000  Level Gander Center
Fri 01:35:10 PM 55.8667 -67.7833 237° Southwest 430 495 36,000  Level Gander Center
Fri 01:36:10 PM 55.8000 -67.9500 235° Southwest 420 483 36,000  Level Gander Center
Fri 01:37:10 PM 55.7333 -68.1167 235° Southwest 420 483 36,000  Level Gander Center
Fri 01:38:10 PM 55.6500 -68.2833 228° Southwest 420 483 36,000  Level Gander Center
Fri 01:39:10 PM 55.6000 -68.4500 242° Southwest 420 483 36,000  Level Gander Center
Fri 01:40:10 PM 55.5167 -68.6000 226° Southwest 420 483 36,000  Level Gander Center
Fri 01:41:10 PM 55.4667 -68.7667 242° Southwest 410 472 36,000  Level Gander Center
Fri 01:42:10 PM 55.3833 -68.9333 229° Southwest 410 472 36,000  Level Gander Center
Fri 01:43:10 PM 55.3333 -69.0667 237° Southwest 410 472 36,000  Level Gander Center
Fri 01:44:10 PM 55.2500 -69.2333 229° Southwest 420 483 36,000  Level Gander Center
Fri 01:45:10 PM 55.1833 -69.4000 235° Southwest 420 483 36,000  Level Gander Center
Fri 01:46:10 PM 55.1167 -69.5667 235° Southwest 420 483 36,000  Level Gander Center
Fri 01:47:10 PM 55.0500 -69.7500 238° Southwest 420 483 36,000  Level Gander Center
Fri 01:48:10 PM 54.9667 -69.9167 229° Southwest 420 483 36,000  Level Gander Center
Fri 01:49:10 PM 54.9000 -70.0667 232° Southwest 420 483 36,000  Level Gander Center
Fri 01:50:10 PM 54.8333 -70.2333 235° Southwest 420 483 36,000  Level Gander Center
Fri 01:51:10 PM 54.7667 -70.4000 235° Southwest 420 483 36,000  Level Gander Center
Fri 01:52:10 PM 54.6833 -70.5500 226° Southwest 420 483 36,000  Level Gander Center
Fri 01:53:10 PM 54.6167 -70.7167 235° Southwest 420 483 36,000  Level Gander Center
Fri 01:54:10 PM 54.5500 -70.8667 233° Southwest 420 483 36,000  Level Gander Center
Fri 01:55:10 PM 54.4833 -71.0333 235° Southwest 420 483 36,000  Level Gander Center
Fri 01:56:10 PM 54.4000 -71.2167 232° Southwest 420 483 36,000  Level Gander Center
Fri 01:57:10 PM 54.3167 -71.3667 226° Southwest 420 483 36,000  Level Gander Center
Fri 01:58:10 PM 54.2500 -71.5167 233° Southwest 420 483 36,000  Level Gander Center
Fri 01:59:10 PM 54.1833 -71.6667 233° Southwest 420 483 36,000  Level Gander Center
Fri 02:00:10 PM 54.1167 -71.8333 236° Southwest 420 483 36,000  Level Gander Center
Fri 02:01:10 PM 54.0333 -71.9833 227° Southwest 420 483 36,000  Level Gander Center
Fri 02:02:10 PM 53.9667 -72.1333 233° Southwest 420 483 36,000  Level Gander Center
Fri 02:03:10 PM 53.8833 -72.2833 227° Southwest 430 495 36,000  Level Gander Center
Fri 02:04:10 PM 53.8000 -72.4333 227° Southwest 430 495 36,000  Level Gander Center
Fri 02:05:10 PM 53.7333 -72.5833 233° Southwest 430 495 36,000  Level Gander Center
Fri 02:06:10 PM 53.6667 -72.7333 233° Southwest 430 495 36,000  Level Gander Center
Fri 02:07:10 PM 53.6000 -72.9000 236° Southwest 430 495 36,000  Level Gander Center
Fri 02:08:10 PM 53.5167 -73.0667 230° Southwest 430 495 36,000 300 Level Gander Center
Fri 02:09:10 PM 53.4333 -73.2167 227° Southwest 420 483 36,600 700 Climbing Gander Center
Fri 02:10:10 PM 53.3667 -73.3667 233° Southwest 410 472 37,400 700 Climbing Gander Center
Fri 02:11:10 PM 53.2833 -73.5167 227° Southwest 410 472 38,000 300 Climbing Gander Center
Fri 02:12:10 PM 53.2167 -73.6667 233° Southwest 420 483 38,000  Level Gander Center
Fri 02:13:10 PM 53.1333 -73.8167 227° Southwest 420 483 38,000  Level Gander Center
Fri 02:14:10 PM 53.0667 -73.9667 234° Southwest 420 483 38,000  Level Gander Center
Fri 02:15:10 PM 52.9833 -74.1000 224° Southwest 420 483 38,000  Level Gander Center
Fri 02:16:10 PM 52.9167 -74.2500 234° Southwest 430 495 38,000  Level Gander Center
Fri 02:17:10 PM 52.8333 -74.4000 227° Southwest 430 495 38,000  Level Gander Center
Fri 02:18:10 PM 52.7500 -74.5333 224° Southwest 430 495 38,000  Level Gander Center
Fri 02:19:10 PM 52.6833 -74.6833 234° Southwest 430 495 38,000  Level Gander Center
Fri 02:20:10 PM 52.6000 -74.8167 224° Southwest 430 495 38,000  Level Gander Center
Fri 02:21:10 PM 52.5333 -75.0000 239° Southwest 430 495 38,000  Level Gander Center
Fri 02:22:10 PM 52.4333 -75.1333 219° Southwest 430 495 38,000  Level Gander Center
Fri 02:23:10 PM 52.3500 -75.3000 231° Southwest 430 495 38,000  Level Gander Center
Fri 02:24:10 PM 52.2833 -75.4500 234° Southwest 430 495 38,000  Level Gander Center
Fri 02:25:10 PM 52.2000 -75.5833 224° Southwest 430 495 38,000  Level Gander Center
Fri 02:26:10 PM 52.1167 -75.7333 228° Southwest 430 495 38,000  Level Gander Center
Fri 02:27:10 PM 52.0333 -75.8667 225° Southwest 430 495 38,000  Level Gander Center
Fri 02:28:10 PM 51.9667 -76.0000 231° Southwest 430 495 38,000  Level Gander Center
Fri 02:29:35 PM 51.8667 -76.1500 223° Southwest 420 483 38,000  Level Montreal Center
Fri 02:30:35 PM 51.7667 -76.2833 220° Southwest 410 472 38,000  Level Montreal Center
Fri 02:31:35 PM 51.6833 -76.4333 228° Southwest 410 472 38,000  Level Montreal Center
Fri 02:32:35 PM 51.6167 -76.5833 234° Southwest 420 483 38,000  Level Montreal Center
Fri 02:33:35 PM 51.5333 -76.7167 225° Southwest 410 472 38,000  Level Montreal Center
Fri 02:34:35 PM 51.4500 -76.8500 225° Southwest 410 472 38,000  Level Montreal Center
Fri 02:35:35 PM 51.3833 -76.9833 231° Southwest 410 472 38,000  Level Montreal Center
Fri 02:36:35 PM 51.3000 -77.1167 225° Southwest 410 472 38,000  Level Montreal Center
Fri 02:37:35 PM 51.2333 -77.2500 231° Southwest 410 472 38,000  Level Montreal Center
Fri 02:38:35 PM 51.1500 -77.3833 225° Southwest 410 472 38,000  Level Montreal Center
Fri 02:39:35 PM 51.0500 -77.5167 220° Southwest 410 472 38,000  Level Montreal Center
Fri 02:40:35 PM 50.9667 -77.6833 232° Southwest 410 472 38,000  Level Montreal Center
Fri 02:41:35 PM 50.9000 -77.7833 223° Southwest 410 472 38,000  Level Montreal Center
Fri 02:42:35 PM 50.8333 -77.9167 232° Southwest 410 472 38,000  Level Montreal Center
Fri 02:43:35 PM 50.7500 -78.0667 229° Southwest 410 472 38,000  Level Montreal Center
Fri 02:44:35 PM 50.6833 -78.1667 224° Southwest 410 472 38,000  Level Montreal Center
Fri 02:45:35 PM 50.5833 -78.3167 224° Southwest 410 472 38,000  Level Montreal Center
Fri 02:46:35 PM 50.5000 -78.4500 226° Southwest 410 472 38,000  Level Montreal Center
Fri 02:47:35 PM 50.4333 -78.5833 232° Southwest 410 472 38,000  Level Montreal Center
Fri 02:48:35 PM 50.3500 -78.7000 222° Southwest 400 460 38,000  Level Montreal Center
Fri 02:49:35 PM 50.2667 -78.8333 226° Southwest 410 472 38,000  Level Montreal Center
Fri 02:50:35 PM 50.1833 -78.9667 226° Southwest 410 472 38,000  Level Montreal Center
Fri 02:51:35 PM 50.1000 -79.0833 222° Southwest 410 472 38,000  Level Montreal Center
Fri 02:52:35 PM 50.0333 -79.2167 232° Southwest 410 472 38,000  Level Montreal Center
Fri 02:53:35 PM 49.9500 -79.3333 222° Southwest 420 483 38,000  Level Montreal Center
Fri 02:54:35 PM 49.8500 -79.4667 221° Southwest 420 483 38,000  Level Montreal Center
Fri 02:55:35 PM 49.7833 -79.5833 229° Southwest 410 472 38,000  Level Montreal Center
Fri 02:56:35 PM 49.7000 -79.7333 229° Southwest 420 483 38,000  Level Montreal Center
Fri 02:57:35 PM 49.6000 -79.8667 221° Southwest 410 472 38,000  Level Montreal Center
Fri 02:58:35 PM 49.5333 -79.9833 229° Southwest 410 472 38,000  Level Montreal Center
Fri 02:59:35 PM 49.4500 -80.1000 222° Southwest 410 472 38,000  Level Montreal Center
Fri 03:00:35 PM 49.3500 -80.2333 221° Southwest 410 472 38,000  Level Montreal Center
Fri 03:01:35 PM 49.2833 -80.3500 229° Southwest 410 472 38,000  Level Montreal Center
Fri 03:02:35 PM 49.2000 -80.4667 222° Southwest 410 472 38,000  Level Montreal Center
Fri 03:03:35 PM 49.1167 -80.6000 226° Southwest 410 472 38,000  Level Montreal Center
Fri 03:04:35 PM 49.0333 -80.7167 223° Southwest 410 472 38,000  Level Montreal Center
Fri 03:06:35 PM 48.8667 -80.9500 223° Southwest 400 460 38,000  Level Montreal Center
Fri 03:07:35 PM 48.8000 -81.0667 229° Southwest 400 460 38,000  Level Montreal Center
Fri 03:08:35 PM 48.7167 -81.1833 223° Southwest 400 460 38,000  Level Montreal Center
Fri 03:09:35 PM 48.6333 -81.3167 227° Southwest 400 460 38,000  Level Montreal Center
Fri 03:10:44 PM 48.5333 -81.4167 214° Southwest 400 460 38,000  Level Toronto Center
Fri 03:11:35 PM 48.4667 -81.5500 233° Southwest 400 460 38,000  Level Montreal Center
Fri 03:12:35 PM 48.3833 -81.6667 223° Southwest 400 460 38,000  Level Montreal Center
Fri 03:13:35 PM 48.3167 -81.7500 220° Southwest 400 460 38,000 279 Level Montreal Center
Fri 03:19:45 PM 47.7770 -82.3650 220° Southwest 392 451 40,000 299 Climbing FlightAware ADS-B
Fri 03:20:17 PM 47.7280 -82.4130 213° Southwest 391 450 40,000  Level FlightAware ADS-B
Fri 03:20:58 PM 47.6750 -82.4640 213° Southwest 391 450 40,000  Level FlightAware ADS-B
Fri 03:21:31 PM 47.6170 -82.5220 214° Southwest 388 447 40,000  Level FlightAware ADS-B
Fri 03:22:15 PM 47.5510 -82.5870 214° Southwest 387 445 40,000  Level FlightAware ADS-B
Fri 03:22:47 PM 47.5030 -82.6330 213° Southwest 386 444 40,000  Level FlightAware ADS-B
Fri 03:23:21 PM 47.4520 -82.6830 214° Southwest 386 444 40,000  Level FlightAware ADS-B
Fri 03:23:57 PM 47.4000 -82.7340 214° Southwest 387 445 40,000  Level FlightAware ADS-B
Fri 03:24:34 PM 47.3450 -82.7870 213° Southwest 389 448 40,000  Level FlightAware ADS-B
Fri 03:25:06 PM 47.2950 -82.8360 214° Southwest 389 448 40,000  Level FlightAware ADS-B
Fri 03:25:44 PM 47.2380 -82.8900 213° Southwest 387 445 40,000  Level FlightAware ADS-B
Fri 03:26:16 PM 47.1900 -82.9370 214° Southwest 387 445 40,000  Level FlightAware ADS-B
Fri 03:26:52 PM 47.1370 -82.9880 213° Southwest 386 444 40,000  Level FlightAware ADS-B
Fri 03:27:26 PM 47.0860 -83.0360 213° Southwest 384 442 40,000  Level FlightAware ADS-B
Fri 03:28:02 PM 47.0340 -83.0860 213° Southwest 383 441 40,000  Level FlightAware ADS-B
Fri 03:28:38 PM 46.9800 -83.1370 213° Southwest 381 438 40,000  Level FlightAware ADS-B
Fri 03:29:14 PM 46.9270 -83.1880 213° Southwest 380 437 40,000  Level FlightAware ADS-B
Fri 03:29:46 PM 46.8790 -83.2340 213° Southwest 379 436 40,000  Level FlightAware ADS-B
Fri 03:30:23 PM 46.8240 -83.2860 213° Southwest 378 435 40,000  Level FlightAware ADS-B
Fri 03:30:58 PM 46.7730 -83.3330 212° Southwest 378 435 40,000  Level FlightAware ADS-B
Fri 03:31:31 PM 46.7240 -83.3800 213° Southwest 378 435 40,000  Level FlightAware ADS-B
Fri 03:32:09 PM 46.6710 -83.4300 213° Southwest 377 434 40,000  Level FlightAware ADS-B
Fri 03:32:41 PM 46.6230 -83.4750 213° Southwest 376 433 40,000  Level FlightAware ADS-B
Fri 03:33:17 PM 46.5700 -83.5250 213° Southwest 376 433 40,000  Level FlightAware ADS-B
Fri 03:33:55 PM 46.5150 -83.5760 213° Southwest 376 433 40,000  Level FlightAware ADS-B
Fri 03:34:28 PM 46.4660 -83.6210 212° Southwest 376 433 40,000  Level FlightAware ADS-B
Fri 03:34:58 PM 46.4220 -83.6630 213° Southwest 376 433 40,000  Level FlightAware ADS-B
Fri 03:35:37 PM 46.3670 -83.7130 212° Southwest 375 432 40,000  Level FlightAware ADS-B
Fri 03:36:08 PM 46.3220 -83.7540 212° Southwest 375 432 40,000  Level FlightAware ADS-B
Fri 03:36:42 PM 46.2700 -83.8030 213° Southwest 376 433 40,000  Level FlightAware ADS-B
Fri 03:37:18 PM 46.2170 -83.8520 213° Southwest 376 433 40,000  Level FlightAware ADS-B
Fri 03:37:54 PM 46.1660 -83.8990 213° Southwest 376 433 40,000  Level FlightAware ADS-B
Fri 03:38:25 PM 46.1190 -83.9420 212° Southwest 377 434 40,000  Level FlightAware ADS-B
Fri 03:39:01 PM 46.0660 -83.9910 213° Southwest 378 435 40,000  Level FlightAware ADS-B
Fri 03:39:33 PM 46.0180 -84.0340 212° Southwest 379 436 40,000  Level FlightAware ADS-B
Fri 03:40:12 PM 45.9610 -84.0860 212° Southwest 378 435 40,000  Level FlightAware ADS-B
Fri 03:40:48 PM 45.9090 -84.1350 213° Southwest 380 437 40,000  Level FlightAware ADS-B
Fri 03:41:21 PM 45.8600 -84.1790 212° Southwest 381 438 40,000  Level FlightAware ADS-B
Fri 03:41:56 PM 45.8080 -84.2260 212° Southwest 381 438 40,000  Level FlightAware ADS-B
Fri 03:42:32 PM 45.7550 -84.2740 212° Southwest 382 440 40,000  Level FlightAware ADS-B
Fri 03:43:02 PM 45.7080 -84.3160 212° Southwest 382 440 40,000  Level FlightAware ADS-B
Fri 03:43:42 PM 45.6500 -84.3690 213° Southwest 382 440 40,000  Level FlightAware ADS-B
Fri 03:44:19 PM 45.5960 -84.4180 212° Southwest 383 441 40,000  Level FlightAware ADS-B
Fri 03:44:51 PM 45.5470 -84.4620 212° Southwest 384 442 40,000  Level FlightAware ADS-B
Fri 03:45:27 PM 45.4930 -84.5100 212° Southwest 384 442 40,000  Level FlightAware ADS-B
Fri 03:46:03 PM 45.4400 -84.5570 212° Southwest 384 442 40,000  Level FlightAware ADS-B
Fri 03:46:34 PM 45.3920 -84.6000 212° Southwest 383 441 40,000  Level FlightAware ADS-B
Fri 03:47:12 PM 45.3350 -84.6510 212° Southwest 385 443 40,000  Level FlightAware ADS-B
Fri 03:47:48 PM 45.2790 -84.6970 210° Southwest 391 450 40,000  Level FlightAware ADS-B
Fri 03:48:20 PM 45.2230 -84.7200 196° South 401 461 40,000 -179 Level FlightAware ADS-B
Fri 03:48:55 PM 45.1600 -84.7410 193° South 401 461 39,800 -857 Descending FlightAware ADS-B
Fri 03:49:30 PM 45.0960 -84.7620 193° South 405 466 39,000 -1,164 Descending FlightAware ADS-B
Fri 03:50:02 PM 45.0400 -84.7800 193° South 407 468 38,500 -986 Descending FlightAware ADS-B
Fri 03:50:43 PM 44.9640 -84.8050 193° South 408 470 37,800 -1,013 Descending FlightAware ADS-B
Fri 03:51:19 PM 44.8950 -84.8280 193° South 411 473 37,200 -985 Descending FlightAware ADS-B
Fri 03:51:50 PM 44.8390 -84.8470 194° South 413 475 36,700 -1,059 Descending FlightAware ADS-B
Fri 03:52:27 PM 44.7710 -84.8690 193° South 414 476 36,000 -1,135 Descending FlightAware ADS-B
Fri 03:53:04 PM 44.7020 -84.8920 193° South 415 478 35,300 -1,075 Descending FlightAware ADS-B
Fri 03:53:34 PM 44.6460 -84.9100 193° South 414 476 34,800 -1,263 Descending FlightAware ADS-B
Fri 03:54:20 PM 44.5580 -84.9390 193° South 417 480 33,700 -1,367 Descending FlightAware ADS-B
Fri 03:54:53 PM 44.4960 -84.9590 193° South 420 483 33,000 -1,324 Descending FlightAware ADS-B
Fri 03:55:28 PM 44.4300 -84.9800 193° South 424 488 32,200 -1,304 Descending FlightAware ADS-B
Fri 03:56:02 PM 44.3620 -85.0020 193° South 426 490 31,500 -1,254 Descending FlightAware ADS-B
Fri 03:56:35 PM 44.2990 -85.0220 193° South 427 491 30,800 -1,286 Descending FlightAware ADS-B
Fri 03:57:12 PM 44.2280 -85.0450 193° South 429 494 30,000 -658 Descending FlightAware ADS-B
Fri 03:57:48 PM 44.1570 -85.0680 193° South 429 494 30,000  Level FlightAware ADS-B
Fri 03:58:25 PM 44.0860 -85.0910 193° South 431 496 30,000  Level FlightAware ADS-B
Fri 03:58:58 PM 44.0220 -85.1110 193° South 431 496 30,000  Level FlightAware ADS-B
Fri 03:59:33 PM 43.9540 -85.1330 193° South 430 495 30,000  Level FlightAware ADS-B
Fri 04:00:10 PM 43.8880 -85.1540 193° South 430 495 30,000  Level FlightAware ADS-B
Fri 04:00:46 PM 43.8130 -85.1780 193° South 432 497 30,000  Level FlightAware ADS-B
Fri 04:01:17 PM 43.7520 -85.1970 193° South 432 497 30,000  Level FlightAware ADS-B
Fri 04:01:54 PM 43.6800 -85.2190 192° South 432 497 30,000  Level FlightAware ADS-B
Fri 04:02:30 PM 43.6100 -85.2420 193° South 433 498 30,000  Level FlightAware ADS-B
Fri 04:03:05 PM 43.5410 -85.2630 192° South 434 499 30,000  Level FlightAware ADS-B
Fri 04:03:40 PM 43.4780 -85.2830 193° South 435 501 30,000 -90 Level FlightAware ADS-B
Fri 04:04:12 PM 43.4110 -85.3040 193° South 417 480 29,900 -87 Descending FlightAware ADS-B
Fri 04:04:49 PM 43.3450 -85.3240 192° South 376 433 29,900 -435 Level FlightAware ADS-B
Fri 04:05:21 PM 43.2920 -85.3410 193° South 359 413 29,400 -761 Descending FlightAware ADS-B
Fri 04:06:00 PM 43.2310 -85.3600 193° South 334 384 29,000 -324 Descending FlightAware ADS-B
Fri 04:06:35 PM 43.1800 -85.3760 193° South 330 380 29,000  Level FlightAware ADS-B
Fri 04:07:08 PM 43.1310 -85.3910 193° South 331 381 29,000  Level FlightAware ADS-B
Fri 04:07:44 PM 43.0760 -85.4080 193° South 332 382 29,000  Level FlightAware ADS-B
Fri 04:08:13 PM 43.0330 -85.4270 198° South 332 382 29,000  Level FlightAware ADS-B
Fri 04:08:32 PM 43.0090 -85.4490 214° Southwest 332 382 29,000  Level FlightAware ADS-B
Fri 04:08:47 PM 42.9930 -85.4710 225° Southwest 330 380 29,000  Level FlightAware ADS-B
Fri 04:09:20 PM 42.9670 -85.5300 239° Southwest 332 382 29,000 -257 Level FlightAware ADS-B
Fri 04:09:57 PM 42.9390 -85.5960 240° Southwest 327 376 28,700 -930 Descending FlightAware ADS-B
Fri 04:10:31 PM 42.9130 -85.6560 239° Southwest 324 373 27,900 -1,478 Descending FlightAware ADS-B
Fri 04:11:06 PM 42.8870 -85.7180 240° Southwest 321 369 27,000 -1,483 Descending FlightAware ADS-B
Fri 04:12:00 PM 42.8460 -85.8110 239° Southwest 316 364 25,700 -1,655 Descending FlightAware ADS-B
Fri 04:12:33 PM 42.8200 -85.8710 239° Southwest 346 398 24,600 -1,754 Descending FlightAware ADS-B
Fri 04:13:05 PM 42.7940 -85.9320 240° Southwest 359 413 23,800 -1,644 Descending FlightAware ADS-B
Fri 04:13:46 PM 42.7590 -86.0120 239° Southwest 373 429 22,600 -1,541 Descending FlightAware ADS-B
Fri 04:14:19 PM 42.7290 -86.0810 239° Southwest 373 429 21,900 -1,217 Descending FlightAware ADS-B
Fri 04:14:55 PM 42.6970 -86.1530 239° Southwest 369 425 21,200 -1,130 Descending FlightAware ADS-B
Fri 04:15:28 PM 42.6690 -86.2170 239° Southwest 367 422 20,600 -1,412 Descending FlightAware ADS-B
Fri 04:16:03 PM 42.6430 -86.2910 244° Southwest 372 428 19,600 -1,500 Descending FlightAware ADS-B
Fri 04:16:36 PM 42.6280 -86.3640 254° West 366 421 18,900 -1,268 Descending FlightAware ADS-B
Fri 04:17:14 PM 42.6140 -86.4410 256° West 357 411 18,100 -1,459 Descending FlightAware ADS-B
Fri 04:17:50 PM 42.5990 -86.5250 256° West 353 406 17,100 -1,606 Descending FlightAware ADS-B
Fri 04:18:25 PM 42.5850 -86.5960 255° West 350 403 16,200 -1,565 Descending FlightAware ADS-B
Fri 04:18:59 PM 42.5710 -86.6690 255° West 344 396 15,300 -1,543 Descending FlightAware ADS-B
Fri 04:19:35 PM 42.5550 -86.7450 254° West 337 388 14,400 -1,500 Descending FlightAware ADS-B
Fri 04:20:07 PM 42.5380 -86.8080 250° West 331 381 13,600 -1,521 Descending FlightAware ADS-B
Fri 04:20:46 PM 42.5190 -86.8780 250° West 326 375 12,600 -1,543 Descending FlightAware ADS-B
Fri 04:21:17 PM 42.5020 -86.9410 250° West 320 368 11,800 -1,612 Descending FlightAware ADS-B
Fri 04:21:53 PM 42.4830 -87.0100 250° West 318 366 10,800 -1,250 Descending FlightAware ADS-B
Fri 04:22:29 PM 42.4660 -87.0740 250° West 297 342 10,300 -600 Descending FlightAware ADS-B
Fri 04:23:03 PM 42.4500 -87.1320 250° West 284 327 10,100 -517 Descending FlightAware ADS-B
Fri 04:23:27 PM 42.4390 -87.1710 249° West 267 307 9,800 -818 Descending FlightAware ADS-B
Fri 04:23:47 PM 42.4300 -87.2030 249° West 264 304 9,500 -900 Descending FlightAware ADS-B
Fri 04:24:07 PM 42.4220 -87.2330 250° West 265 305 9,200 -1,167 Descending FlightAware ADS-B
Fri 04:24:23 PM 42.4150 -87.2570 248° West 264 304 8,800 -1,313 Descending FlightAware ADS-B
Fri 04:24:39 PM 42.4070 -87.2830 247° West 264 304 8,500 -1,154 Descending FlightAware ADS-B
Fri 04:24:49 PM 42.4000 -87.2960 234° Southwest 264 304 8,300 -1,333 Descending FlightAware ADS-B
Fri 04:24:57 PM 42.3920 -87.3030 213° Southwest 268 308 8,100 -1,200 Descending FlightAware ADS-B
Fri 04:25:09 PM 42.3780 -87.3090 198° South 273 314 7,900 -1,154 Descending FlightAware ADS-B
Fri 04:25:23 PM 42.3590 -87.3110 184° South 275 316 7,600 -1,135 Descending FlightAware ADS-B
Fri 04:25:46 PM 42.3330 -87.3130 183° South 275 316 7,200 -1,000 Descending FlightAware ADS-B
Fri 04:26:05 PM 42.3080 -87.3150 183° South 273 314 6,900 -878 Descending FlightAware ADS-B
Fri 04:26:27 PM 42.2790 -87.3170 183° South 271 312 6,600 -789 Descending FlightAware ADS-B
Fri 04:26:43 PM 42.2600 -87.3190 184° South 271 312 6,400 -833 Descending FlightAware ADS-B
Fri 04:27:03 PM 42.2330 -87.3210 183° South 271 312 6,100 -600 Descending FlightAware ADS-B
Fri 04:27:13 PM 42.2200 -87.3220 183° South 273 314 6,100  Level FlightAware ADS-B
Fri 04:27:37 PM 42.1900 -87.3250 184° South 271 312 6,100  Level FlightAware ADS-B
Fri 04:27:59 PM 42.1630 -87.3270 183° South 271 312 6,100  Level FlightAware ADS-B
Fri 04:28:35 PM 42.1190 -87.3260 179° South 273 314 6,100 -107 Level FlightAware ADS-B
Fri 04:28:55 PM 42.0920 -87.3220 174° South 272 313 6,000 -474 Descending FlightAware ADS-B
Fri 04:29:13 PM 42.0700 -87.3180 172° South 273 314 5,800 -750 Descending FlightAware ADS-B
Fri 04:29:35 PM 42.0420 -87.3140 174° South 273 314 5,500 -724 Descending FlightAware ADS-B
Fri 04:30:11 PM 41.9990 -87.3250 191° South 263 303 5,100 -545 Descending FlightAware ADS-B
Fri 04:30:19 PM 41.9930 -87.3330 225° Southwest 258 297 5,100  Level FlightAware ADS-B
Fri 04:30:25 PM 41.9890 -87.3420 239° Southwest 257 296 5,100  Level FlightAware ADS-B
Fri 04:30:47 PM 41.9780 -87.3730 244° Southwest 255 293 5,100  Level FlightAware ADS-B
Fri 04:30:59 PM 41.9720 -87.3910 246° West 255 293 5,100  Level FlightAware ADS-B
Fri 04:31:07 PM 41.9690 -87.4010 248° West 254 292 5,100  Level FlightAware ADS-B
Fri 04:31:13 PM 41.9690 -87.4110 270° West 253 291 5,100  Level FlightAware ADS-B
Fri 04:31:51 PM 41.9690 -87.4660 270° West 217 250 5,100  Level FlightAware ADS-B
Fri 04:32:11 PM 41.9690 -87.4940 270° West 212 244 5,100  Level FlightAware ADS-B
Fri 04:32:23 PM 41.9690 -87.5100 270° West 211 243 5,100  Level FlightAware ADS-B
Fri 04:32:41 PM 41.9690 -87.5330 270° West 211 243 5,100  Level FlightAware ADS-B
Fri 04:33:03 PM 41.9690 -87.5610 270° West 204 235 5,100 -136 Level FlightAware ADS-B
Fri 04:33:25 PM 41.9690 -87.5880 270° West 188 216 5,000 -419 Descending FlightAware ADS-B
Fri 04:33:46 PM 41.9690 -87.6110 270° West 181 208 4,800 -789 Descending FlightAware ADS-B
Fri 04:34:03 PM 41.9690 -87.6300 270° West 174 200 4,500 -973 Descending FlightAware ADS-B
Fri 04:34:23 PM 41.9690 -87.6510 270° West 174 200 4,200 -882 Descending FlightAware ADS-B
Fri 04:34:37 PM 41.9690 -87.6670 270° West 172 198 4,000 -1,050 Descending FlightAware ADS-B
Fri 04:35:03 PM 41.9690 -87.6940 270° West 173 199 3,500 -1,000 Descending FlightAware ADS-B
Fri 04:35:25 PM 41.9690 -87.7180 270° West 175 201 3,200 -938 Descending FlightAware ADS-B
Fri 04:35:35 PM 41.9690 -87.7290 270° West 176 203 3,000 -833 Descending FlightAware ADS-B
Fri 04:36:01 PM 41.9690 -87.7570 270° West 170 196 2,700 -913 Descending FlightAware ADS-B
Fri 04:36:21 PM 41.9690 -87.7770 270° West 164 189 2,300 -1,000 Descending FlightAware ADS-B
Fri 04:36:37 PM 41.9690 -87.7940 270° West 161 185 2,100 -833 Descending FlightAware ADS-B
Fri 04:36:57 PM 41.9690 -87.8120 270° West 148 170 1,800 -766 Descending FlightAware ADS-B
Fri 04:37:24 PM 41.9690 -87.8350 270° West 135 155 1,500 -638 Descending FlightAware ADS-B
Fri 04:37:44 PM 41.9690 -87.8520 270° West 137 158 1,300 -667 Descending FlightAware ADS-B
Fri 04:38:00 PM 41.9690 -87.8660 270° West 138 159 1,100 -857 Descending FlightAware ADS-B
Fri 04:38:26 PM 41.9690 -87.8890 270° West 135 155 700 -462 Descending FlightAware ADS-B
Fri 04:38:52 PM 41.9690 -87.9070 270° West 135 155 700  Level FlightAware ADS-B

Login

Don't have an account? Register now (free) for customized features, flight alerts, and more!